Hamburg Helmut Schmidt Airport

EDDH · Hamburg, Germany

METAR history EDDH · Hamburg Helmut Schmidt Airport

Below you see METARs of the last few days. Select a year to browse through older METARs, from the year 2007 onwards.

December 5, 2022

Time Code Weather Temp. Visibility Ceiling Wind METAR/SPECI
11:50
I
3 °C 7 km 700 ft 080° 080° 6 kt METAR EDDH 051050Z AUTO 08006KT 050V110 7000 -RA OVC007 03/02 Q1019 TEMPO 4000
11:20
I
3 °C 7 km 700 ft 080° 080° 6 kt METAR EDDH 051020Z AUTO 08006KT 7000 -RADZ BKN007 OVC010 03/02 Q1019 TEMPO 4000
10:50
I
3 °C 6 km 600 ft 090° 090° 7 kt METAR EDDH 050950Z AUTO 09007KT 050V110 6000 -RADZ OVC006 03/02 Q1019 TEMPO 4000
10:20
I
3 °C 8 km 700 ft 090° 090° 6 kt METAR EDDH 050920Z AUTO 09006KT 8000 BKN007 03/02 Q1019 TEMPO 4000
09:50
I
3 °C 10 km+ 800 ft 080° 080° 5 kt METAR EDDH 050850Z AUTO 08005KT 9999 OVC008 03/02 Q1019 TEMPO 4000 -DZ
09:20
I
4 °C 9 km 800 ft 060° 060° 8 kt METAR EDDH 050820Z AUTO 06008KT 9000 OVC008 04/02 Q1019 TEMPO 4000 -DZ
08:50
I
4 °C 8 km 800 ft 070° 070° 7 kt METAR EDDH 050750Z AUTO 07007KT 040V110 8000 BKN008 04/03 Q1019 TEMPO 4000 -DZ
08:20
I
4 °C 8 km 800 ft 070° 070° 9 kt METAR EDDH 050720Z AUTO 07009KT 8000 BKN008 04/03 Q1019 TEMPO 4000 -DZRA
07:50
I
4 °C 8 km 800 ft 060° 060° 9 kt METAR EDDH 050650Z AUTO 06009KT 8000 OVC008 04/03 Q1019 TEMPO 4000 -DZRA
07:20
I
4 °C 8 km 900 ft 050° 050° 10 kt METAR EDDH 050620Z AUTO 05010KT 8000 -RA BKN009 OVC012 04/03 Q1019 TEMPO 4000
06:50
I
4 °C 7 km 700 ft 060° 060° 7 kt METAR EDDH 050550Z AUTO 06007KT 7000 BKN007 OVC010 04/04 Q1019 TEMPO 4000 -DZ
06:20
I
4 °C 5 km 700 ft 060° 060° 8 kt METAR EDDH 050520Z AUTO 06008KT 5000 BR OVC007 04/04 Q1019 TEMPO 4000 -DZ
05:50
I
5 °C 4.8 km 700 ft 070° 070° 7 kt METAR EDDH 050450Z AUTO 07007KT 4800 -DZ BR OVC007 05/04 Q1019 NOSIG
05:20
I
5 °C 4.8 km 600 ft 060° 060° 10 kt METAR EDDH 050420Z AUTO 06010KT 4800 -DZ BR OVC006 05/04 Q1019 NOSIG
04:50
I
5 °C 7 km 600 ft 040° 040° 8 kt METAR EDDH 050350Z AUTO 04008KT 7000 OVC006 05/04 Q1019 TEMPO 4000 -DZ
04:20
I
5 °C 5 km 600 ft 050° 050° 6 kt METAR EDDH 050320Z AUTO 05006KT 5000 -DZ BR OVC006 05/04 Q1019 TEMPO 4000
03:50
I
5 °C 5 km 500 ft 060° 060° 7 kt METAR EDDH 050250Z AUTO 06007KT 030V090 5000 BR OVC005 05/04 Q1019 TEMPO 4000 -DZ
03:20
I
4 °C 9 km 600 ft 050° 050° 9 kt METAR EDDH 050220Z AUTO 05009KT 9000 OVC006 04/04 Q1019 NOSIG
02:50
I
4 °C 10 km+ 700 ft 060° 060° 6 kt METAR EDDH 050150Z AUTO 06006KT 9999 OVC007 04/03 Q1019 NOSIG
02:20
I
4 °C 9 km 700 ft 060° 060° 6 kt METAR EDDH 050120Z AUTO 06006KT 020V090 9000 OVC007 04/03 Q1019 NOSIG
01:50
I
4 °C 10 km+ 700 ft 060° 060° 7 kt METAR EDDH 050050Z AUTO 06007KT 030V090 9999 BKN007 04/03 Q1019 NOSIG
01:20
I
4 °C 6 km 900 ft 050° 050° 7 kt METAR EDDH 050020Z AUTO 05007KT 6000 BKN009 04/03 Q1019 TEMPO 4000 BR
00:50
I
4 °C 10 km+ 900 ft 060° 060° 8 kt METAR EDDH 042350Z AUTO 06008KT 9999 OVC009 04/03 Q1020 NOSIG
00:20
I
4 °C 10 km+ 900 ft 060° 060° 10 kt METAR EDDH 042320Z AUTO 06010KT 9999 OVC009 04/03 Q1020 NOSIG

December 4, 2022

Time Code Weather Temp. Visibility Ceiling Wind METAR/SPECI
23:50
I
4 °C 10 km+ 900 ft 060° 060° 9 kt METAR EDDH 042250Z AUTO 06009KT 9999 OVC009 04/02 Q1020 NOSIG
23:20
I
4 °C 10 km+ 900 ft 050° 050° 8 kt METAR EDDH 042220Z AUTO 05008KT 020V080 9999 OVC009 04/02 Q1020 NOSIG
22:50
I
4 °C 10 km+ 900 ft 060° 060° 8 kt METAR EDDH 042150Z AUTO 06008KT 020V090 9999 OVC009 04/02 Q1020 NOSIG
22:20
M
4 °C 10 km+ 1,000 ft 050° 050° 8 kt METAR EDDH 042120Z AUTO 05008KT 010V070 9999 BKN010 OVC024 OVC037 04/02 Q1020 BECMG BKN009
21:50
M
4 °C 10 km+ 1,100 ft 060° 060° 7 kt METAR EDDH 042050Z AUTO 06007KT 9999 BKN011 BKN024 OVC038 04/02 Q1021 BECMG BKN009
21:20
M
4 °C 10 km+ 1,200 ft 060° 060° 8 kt METAR EDDH 042020Z AUTO 06008KT 9999 BKN012 OVC023 OVC039 04/02 Q1021 BECMG BKN009
20:50
M
4 °C 10 km+ 1,200 ft 060° 060° 8 kt METAR EDDH 041950Z AUTO 06008KT 9999 BKN012 OVC019 04/02 Q1021 BECMG BKN009
20:20
M
4 °C 10 km+ 1,200 ft 070° 070° 8 kt METAR EDDH 041920Z AUTO 07008KT 9999 BKN012 OVC019 04/02 Q1021 BECMG BKN009
19:50
M
4 °C 10 km+ 1,200 ft 080° 080° 10 kt METAR EDDH 041850Z AUTO 08010KT 050V110 9999 BKN012 OVC019 04/02 Q1021 BECMG BKN009
19:20
M
4 °C 10 km+ 1,000 ft 070° 070° 10 kt METAR EDDH 041820Z AUTO 07010KT 9999 OVC010 04/02 Q1021 BECMG BKN008
18:50
I
4 °C 10 km+ 900 ft 070° 070° 12 kt METAR EDDH 041750Z AUTO 07012KT 9999 OVC009 04/02 Q1021 NOSIG
18:20
I
4 °C 10 km+ 900 ft 070° 070° 10 kt METAR EDDH 041720Z AUTO 07010KT 040V110 9999 OVC009 04/02 Q1021 NOSIG
17:50
I
4 °C 10 km+ 900 ft 070° 070° 11 kt METAR EDDH 041650Z AUTO 07011KT 9999 OVC009 04/02 Q1020 TEMPO BKN010
17:20
M
4 °C 10 km+ 1,000 ft 060° 060° 9 kt METAR EDDH 041620Z AUTO 06009KT 020V090 9999 OVC010 04/02 Q1020 TEMPO BKN009
16:50
M
4 °C 10 km+ 1,000 ft 070° 070° 12 kt METAR EDDH 041550Z AUTO 07012KT 9999 OVC010 04/02 Q1021 TEMPO BKN009
16:20
M
4 °C 10 km+ 1,000 ft 070° 070° 12 kt METAR EDDH 041520Z AUTO 07012KT 9999 OVC010 04/02 Q1021 TEMPO BKN009
15:50
M
4 °C 10 km+ 1,200 ft 070° 070° 10 kt METAR EDDH 041450Z AUTO 07010KT 9999 OVC012 04/01 Q1021 NOSIG
15:20
M
3 °C 10 km+ 1,300 ft 070° 070° 9 kt METAR EDDH 041420Z AUTO 07009KT 040V100 9999 OVC013 03/01 Q1021 NOSIG
14:50
M
3 °C 10 km+ 1,400 ft 060° 060° 8 kt METAR EDDH 041350Z AUTO 06008KT 9999 BKN014 OVC023 OVC033 03/01 Q1021 TEMPO BKN015
14:20
M
3 °C 10 km+ 1,500 ft 060° 060° 9 kt METAR EDDH 041320Z AUTO 06009KT 9999 BKN015 BKN022 OVC031 03/00 Q1021 TEMPO BKN014
13:50
M
3 °C 10 km+ 1,500 ft 070° 070° 8 kt METAR EDDH 041250Z AUTO 07008KT 040V100 9999 BKN015 BKN020 OVC030 03/00 Q1021 TEMPO BKN013
13:20
M
3 °C 10 km+ 2,900 ft 060° 060° 6 kt METAR EDDH 041220Z AUTO 06006KT 030V090 9999 FEW020 OVC029 03/00 Q1021 NOSIG
12:50
M
2 °C 10 km+ 2,900 ft 050° 050° 6 kt METAR EDDH 041150Z AUTO 05006KT 9999 OVC029 02/M00 Q1022 NOSIG
12:20
V
2 °C 10 km+ 3,000 ft 050° 050° 8 kt METAR EDDH 041120Z AUTO 05008KT 020V080 9999 OVC030 02/M00 Q1022 NOSIG
11:50
V
2 °C 10 km+ 3,100 ft 060° 060° 8 kt METAR EDDH 041050Z AUTO 06008KT 9999 OVC031 02/M01 Q1022 NOSIG
11:20
V
2 °C 10 km+ 3,200 ft 050° 050° 8 kt METAR EDDH 041020Z AUTO 05008KT 9999 OVC032 02/M01 Q1022 NOSIG
10:50
V
1 °C 10 km+ 3,100 ft 060° 060° 9 kt METAR EDDH 040950Z AUTO 06009KT 9999 OVC031 01/M01 Q1022 NOSIG
10:20
V
1 °C 9 km 3,000 ft 060° 060° 9 kt METAR EDDH 040920Z AUTO 06009KT 020V080 9000 OVC030 01/M01 Q1022 NOSIG
09:50
V
1 °C 8 km 3,000 ft 060° 060° 8 kt METAR EDDH 040850Z AUTO 06008KT 8000 OVC030 01/M01 Q1022 NOSIG
09:20
M
0 °C 8 km 2,800 ft 060° 060° 7 kt METAR EDDH 040820Z AUTO 06007KT 8000 OVC028 00/M02 Q1022 NOSIG
08:50
M
0 °C 8 km 2,600 ft 040° 040° 6 kt METAR EDDH 040750Z AUTO 04006KT 020V080 8000 OVC026 00/M02 Q1022 NOSIG
08:20
M
0 °C 8 km 2,400 ft 050° 050° 6 kt METAR EDDH 040720Z AUTO 05006KT 8000 OVC024 00/M02 Q1022 NOSIG
07:50
M
0 °C 9 km 2,500 ft 050° 050° 6 kt METAR EDDH 040650Z AUTO 05006KT 010V070 9000 OVC025 M00/M02 Q1022 NOSIG
07:20
M
0 °C 9 km 2,700 ft 050° 050° 6 kt METAR EDDH 040620Z AUTO 05006KT 020V080 9000 OVC027 M00/M02 Q1022 NOSIG
06:50
M
0 °C 9 km 2,700 ft 060° 060° 7 kt METAR EDDH 040550Z AUTO 06007KT 9000 OVC027 M00/M02 Q1022 NOSIG
06:20
M
0 °C 9 km 2,600 ft 060° 060° 7 kt METAR EDDH 040520Z AUTO 06007KT 9000 OVC026 M00/M02 Q1022 TEMPO BKN012
05:50
M
0 °C 10 km+ 2,400 ft 060° 060° 8 kt METAR EDDH 040450Z AUTO 06008KT 9999 OVC024 M00/M02 Q1022 TEMPO BKN012
05:20
M
0 °C 10 km+ 2,400 ft 060° 060° 7 kt METAR EDDH 040420Z AUTO 06007KT 9999 OVC024 M00/M02 Q1022 TEMPO BKN012
04:50
M
0 °C 10 km+ 2,300 ft 060° 060° 8 kt METAR EDDH 040350Z AUTO 06008KT 9999 OVC023 M00/M02 Q1022 TEMPO BKN012
04:20
M
0 °C 10 km+ 2,400 ft 070° 070° 7 kt METAR EDDH 040320Z AUTO 07007KT 9999 FEW011 OVC024 M00/M03 Q1022 TEMPO BKN011
03:50
M
0 °C 10 km+ 2,400 ft 070° 070° 8 kt METAR EDDH 040250Z AUTO 07008KT 9999 FEW011 OVC024 M00/M03 Q1022 TEMPO BKN011
03:20
M
0 °C 10 km+ 2,400 ft 070° 070° 7 kt METAR EDDH 040220Z AUTO 07007KT 9999 FEW012 OVC024 M00/M03 Q1022 TEMPO BKN012
02:50
M
0 °C 10 km+ 1,300 ft 070° 070° 8 kt METAR EDDH 040150Z AUTO 07008KT 9999 BKN013 OVC024 M00/M03 Q1022 NOSIG
02:20
M
0 °C 10 km+ 1,300 ft 070° 070° 7 kt METAR EDDH 040120Z AUTO 07007KT 9999 BKN013 OVC025 M00/M03 Q1022 NOSIG
01:50
M
0 °C 10 km+ 1,400 ft 070° 070° 8 kt METAR EDDH 040050Z AUTO 07008KT 9999 BKN014 OVC022 M00/M03 Q1023 NOSIG
01:20
M
0 °C 10 km+ 1,700 ft 080° 080° 7 kt METAR EDDH 040020Z AUTO 08007KT 9999 OVC017 M00/M03 Q1023 TEMPO BKN014
00:50
M
-1 °C 10 km+ 1,500 ft 080° 080° 7 kt METAR EDDH 032350Z AUTO 08007KT 9999 BKN015 OVC019 M01/M03 Q1023 TEMPO BKN014
00:20
M
-1 °C 10 km+ 1,400 ft 080° 080° 7 kt METAR EDDH 032320Z AUTO 08007KT 9999 BKN014 BKN021 OVC026 M01/M04 Q1023 NOSIG

December 3, 2022

Time Code Weather Temp. Visibility Ceiling Wind METAR/SPECI
23:50
M
-1 °C 10 km+ 2,800 ft 090° 090° 8 kt METAR EDDH 032250Z AUTO 09008KT 9999 SCT016 OVC028 M01/M04 Q1023 TEMPO BKN014
23:20
M
-1 °C 10 km+ 1,600 ft 090° 090° 7 kt METAR EDDH 032220Z AUTO 09007KT 9999 BKN016 M01/M04 Q1023 TEMPO BKN014
22:50
M
0 °C 10 km+ 1,400 ft 090° 090° 10 kt METAR EDDH 032150Z AUTO 09010KT 9999 OVC014 M00/M03 Q1023 TEMPO BKN015
22:20
M
0 °C 10 km+ 1,600 ft 110° 110° 9 kt METAR EDDH 032120Z AUTO 11009KT 9999 OVC016 M00/M04 Q1023 TEMPO BKN014
21:50
M
0 °C 10 km+ 1,700 ft 110° 110° 11 kt METAR EDDH 032050Z AUTO 11011KT 090V150 9999 OVC017 M00/M04 Q1023 TEMPO BKN014
21:20
M
0 °C 10 km+ 1,700 ft 100° 100° 8 kt METAR EDDH 032020Z AUTO 10008KT 080V140 9999 OVC017 00/M03 Q1023 TEMPO BKN014
20:50
M
0 °C 10 km+ 1,500 ft 100° 100° 8 kt METAR EDDH 031950Z AUTO 10008KT 070V130 9999 OVC015 00/M03 Q1023 TEMPO BKN014
20:20
M
0 °C 10 km+ 1,600 ft 120° 120° 8 kt METAR EDDH 031920Z AUTO 12008KT 9999 OVC016 00/M02 Q1023 TEMPO BKN014
19:50
M
1 °C 10 km+ 1,600 ft 100° 100° 9 kt METAR EDDH 031850Z AUTO 10009KT 070V130 9999 BKN016 01/M02 Q1023 NOSIG
19:20
M
1 °C 10 km+ 1,700 ft 090° 090° 4 kt METAR EDDH 031820Z AUTO 09004KT 060V120 9999 BKN017 BKN021 OVC046 01/M02 Q1022 NOSIG
18:50
V
1 °C 10 km+ 4,800 ft 070° 070° 4 kt METAR EDDH 031750Z AUTO 07004KT 9999 SCT018 BKN048 01/M02 Q1022 NOSIG
18:20
V
1 °C 10 km+ - 070° 070° 7 kt METAR EDDH 031720Z AUTO 07007KT 9999 FEW016 01/M02 Q1023 NOSIG
17:50
V
1 °C 10 km+ - 080° 080° 8 kt METAR EDDH 031650Z AUTO 08008KT 050V110 9999 FEW017 01/M02 Q1023 NOSIG
17:20
M
1 °C 10 km+ 2,000 ft 070° 070° 5 kt METAR EDDH 031620Z AUTO 07005KT 9999 BKN020 01/M02 Q1023 NOSIG
16:50
M
1 °C 10 km+ 2,100 ft 060° 060° 6 kt METAR EDDH 031550Z AUTO 06006KT 9999 BKN021 BKN034 01/M02 Q1023 NOSIG
16:20
M
1 °C 10 km+ 1,900 ft 060° 060° 5 kt METAR EDDH 031520Z AUTO 06005KT 9999 BKN019 01/M02 Q1023 NOSIG
15:50
M
1 °C 10 km+ 1,900 ft 060° 060° 7 kt METAR EDDH 031450Z AUTO 06007KT 9999 BKN019 BKN037 01/M02 Q1023 NOSIG
15:20
M
1 °C 10 km+ 1,900 ft 060° 060° 7 kt METAR EDDH 031420Z AUTO 06007KT 9999 BKN019 BKN030 01/M02 Q1023 NOSIG
14:50
V
2 °C 10 km+ 3,400 ft 070° 070° 6 kt METAR EDDH 031350Z AUTO 07006KT 9999 SCT018 BKN034 02/M02 Q1023 NOSIG
14:20
M
2 °C 10 km+ 2,700 ft 060° 060° 8 kt METAR EDDH 031320Z AUTO 06008KT 9999 SCT017 OVC027 02/M02 Q1023 NOSIG
13:50
M
1 °C 10 km+ 1,800 ft 060° 060° 8 kt METAR EDDH 031250Z AUTO 06008KT 9999 BKN018 OVC024 01/M02 Q1023 NOSIG
13:20
M
2 °C 10 km+ 1,800 ft 070° 070° 8 kt METAR EDDH 031220Z AUTO 07008KT 9999 OVC018 02/M02 Q1024 NOSIG
12:50
M
1 °C 10 km+ 1,800 ft 080° 080° 7 kt METAR EDDH 031150Z AUTO 08007KT 050V110 9999 BKN018 01/M02 Q1024 NOSIG
12:20
M
1 °C 10 km+ 1,900 ft 080° 080° 8 kt METAR EDDH 031120Z AUTO 08008KT 9999 BKN019 BKN026 OVC033 01/M02 Q1025 NOSIG
11:50
V
2 °C 10 km+ 3,000 ft 080° 080° 8 kt METAR EDDH 031050Z AUTO 08008KT 9999 FEW017 BKN030 OVC043 02/M02 Q1025 NOSIG
11:20
V
2 °C 10 km+ 4,000 ft 080° 080° 7 kt METAR EDDH 031020Z AUTO 08007KT 9999 FEW018 SCT031 OVC040 02/M01 Q1025 NOSIG
10:50
V
2 °C 10 km+ 4,100 ft 070° 070° 8 kt METAR EDDH 030950Z AUTO 07008KT 9999 FEW017 OVC041 02/M02 Q1025 NOSIG

We and third parties follow your internet behavior on our website with cookies. If you continue, we assume you agree with our cookie policy.